Time;durP1;ratioP1;P1;durP2;ratioP2;P2;SDS_P1;SDS_P2;PMS_P1;PMS_P2;Temp;Humidity;BMP_temperature;BMP_pressure;BME280_temperature;BME280_humidity;BME280_pressure;Samples;Min_cycle;Max_cycle;Signal;HPM_P1;HPM_P2
2023/09/08 00:00:53;;;;;;;34.33;22.92;;;;;;;24.13;83.58;101171.94;7355255;19;20056;-60
2023/09/08 00:03:21;;;;;;;35.22;22.65;;;;;;;24.11;83.85;101174.06;7358236;19;20030;-60
2023/09/08 00:05:49;;;;;;;33.30;22.15;;;;;;;24.10;84.05;101168.91;7347435;19;20007;-61
2023/09/08 00:08:16;;;;;;;35.88;23.33;;;;;;;24.11;84.05;101173.25;7356242;19;20052;-64
2023/09/08 00:10:43;;;;;;;36.67;23.75;;;;;;;24.08;84.06;101177.19;7354367;19;20015;-60
2023/09/08 00:13:11;;;;;;;33.08;22.17;;;;;;;24.04;84.33;101178.72;7353261;19;20082;-60
2023/09/08 00:15:38;;;;;;;34.53;23.65;;;;;;;24.04;84.59;101176.03;7354248;19;20018;-58
2023/09/08 00:18:05;;;;;;;39.20;22.65;;;;;;;24.02;84.56;101183.53;7352083;19;20021;-60
2023/09/08 00:20:33;;;;;;;32.83;22.25;;;;;;;24.02;84.68;101178.16;7363205;19;20047;-64
2023/09/08 00:23:00;;;;;;;33.10;21.23;;;;;;;24.01;84.41;101173.00;7360754;19;20025;-59
2023/09/08 00:25:27;;;;;;;34.97;22.58;;;;;;;24.05;85.54;101174.16;7360056;19;20713;-59
2023/09/08 00:27:55;;;;;;;31.95;21.48;;;;;;;24.06;85.24;101170.44;7360129;19;20122;-61
2023/09/08 00:30:22;;;;;;;32.17;19.60;;;;;;;24.08;84.71;101173.69;7360520;19;20014;-60
2023/09/08 00:32:49;;;;;;;25.70;17.38;;;;;;;24.07;84.77;101167.53;7360985;19;20044;-59
2023/09/08 00:35:17;;;;;;;19.55;13.20;;;;;;;24.06;84.54;101167.75;7358014;19;20026;-60
2023/09/08 00:37:44;;;;;;;15.25;8.93;;;;;;;24.03;82.65;101174.41;7349590;19;20022;-62
2023/09/08 00:40:11;;;;;;;13.80;7.70;;;;;;;24.02;82.49;101163.88;7366948;19;20018;-60
2023/09/08 00:42:38;;;;;;;12.30;6.38;;;;;;;24.03;82.81;101163.63;7368482;19;21741;-60
2023/09/08 00:45:06;;;;;;;11.13;5.90;;;;;;;24.03;82.22;101166.31;7360390;19;20018;-60
2023/09/08 00:47:34;;;;;;;11.43;6.10;;;;;;;24.04;81.33;101173.34;7359224;19;20039;-60
2023/09/08 00:50:04;;;;;;;9.90;5.47;;;;;;;24.03;81.18;101160.13;7360555;19;20015;-60
2023/09/08 00:52:33;;;;;;;8.57;5.20;;;;;;;24.01;81.21;101164.94;7359864;19;20030;-61
2023/09/08 00:55:01;;;;;;;10.60;5.80;;;;;;;24.00;80.31;101166.81;7361586;19;20025;-60
2023/09/08 00:57:28;;;;;;;8.50;5.30;;;;;;;24.01;80.80;101164.94;7356609;19;20535;-60
2023/09/08 00:59:56;;;;;;;8.85;5.35;;;;;;;24.01;81.55;101167.63;7356956;19;20025;-61
2023/09/08 01:02:23;;;;;;;9.07;5.50;;;;;;;23.99;81.35;101170.53;7359120;19;20142;-61
2023/09/08 01:04:51;;;;;;;8.93;5.38;;;;;;;24.00;81.49;101171.34;7355301;19;20018;-60
2023/09/08 01:07:20;;;;;;;7.30;5.05;;;;;;;23.97;80.85;101178.03;7357543;19;20011;-60
2023/09/08 01:09:48;;;;;;;9.48;5.15;;;;;;;23.96;81.66;101181.78;7357143;19;20026;-59
2023/09/08 01:12:15;;;;;;;7.75;5.13;;;;;;;23.93;81.42;101170.63;7356276;19;20041;-60
2023/09/08 01:14:43;;;;;;;8.60;5.82;;;;;;;23.91;81.47;101172.75;7359933;19;20010;-60
2023/09/08 01:17:12;;;;;;;8.30;5.95;;;;;;;23.93;81.39;101170.63;7358716;19;20026;-60
2023/09/08 01:19:41;;;;;;;11.32;6.25;;;;;;;23.91;81.55;101170.91;7356865;19;20010;-60
2023/09/08 01:22:26;;;;;;;7.93;5.47;;;;;;;23.88;81.66;101165.97;7358625;19;20022;-61
2023/09/08 01:25:12;;;;;;;8.95;5.05;;;;;;;23.87;82.48;101157.06;7363272;19;20713;-60
2023/09/08 01:27:46;;;;;;;8.48;4.65;;;;;;;23.85;81.81;101156.50;7355176;19;20010;-61
2023/09/08 01:30:15;;;;;;;8.90;5.03;;;;;;;23.84;81.68;101156.72;7354338;19;20002;-60
2023/09/08 01:32:45;;;;;;;6.70;3.80;;;;;;;23.84;80.92;101157.56;7356949;19;20598;-61
2023/09/08 01:35:13;;;;;;;7.38;4.10;;;;;;;23.83;81.09;101158.59;7355585;19;20010;-61
2023/09/08 01:37:42;;;;;;;5.82;4.00;;;;;;;23.80;81.06;101161.75;7357770;19;21734;-60
2023/09/08 01:40:10;;;;;;;10.10;4.13;;;;;;;23.76;80.89;101152.53;7358898;19;20475;-59
2023/09/08 01:42:38;;;;;;;6.30;4.00;;;;;;;23.74;80.87;101151.94;7357043;19;20038;-59
2023/09/08 01:45:06;;;;;;;5.05;4.13;;;;;;;23.73;81.54;101150.28;7358766;19;20031;-59
2023/09/08 01:47:34;;;;;;;8.05;4.20;;;;;;;23.72;81.53;101151.31;7358152;19;20014;-61
2023/09/08 01:50:02;;;;;;;5.03;3.63;;;;;;;23.72;81.41;101158.59;7357853;19;20014;-60
2023/09/08 01:52:29;;;;;;;9.48;4.07;;;;;;;23.73;81.88;101162.91;7357342;19;20017;-61
2023/09/08 01:54:56;;;;;;;6.22;3.35;;;;;;;23.72;81.40;101158.59;7363188;19;21727;-61
2023/09/08 01:57:24;;;;;;;7.05;3.08;;;;;;;23.71;81.23;101151.56;7361543;19;20369;-60
2023/09/08 01:59:51;;;;;;;5.40;3.30;;;;;;;23.71;81.21;101154.28;7357078;19;20025;-61
2023/09/08 02:02:18;;;;;;;5.63;2.80;;;;;;;23.71;80.79;101167.72;7356518;19;20022;-60
2023/09/08 02:04:45;;;;;;;5.68;3.42;;;;;;;23.69;80.81;101161.72;7359426;19;20018;-61
2023/09/08 02:07:13;;;;;;;5.43;3.20;;;;;;;23.67;81.00;101163.84;7357408;19;20022;-61
2023/09/08 02:09:42;;;;;;;6.10;3.40;;;;;;;23.65;81.15;101163.25;7360838;19;20018;-61
2023/09/08 02:12:09;;;;;;;6.78;3.05;;;;;;;23.62;80.74;101164.50;7356451;19;20017;-61
2023/09/08 02:14:37;;;;;;;4.82;2.97;;;;;;;23.61;81.05;101151.31;7358377;19;20031;-61
2023/09/08 02:17:06;;;;;;;4.07;3.03;;;;;;;23.59;81.07;101148.84;7357563;19;20467;-61
2023/09/08 02:19:33;;;;;;;6.95;3.50;;;;;;;23.59;80.86;101159.59;7361418;19;20014;-61
2023/09/08 02:22:00;;;;;;;6.65;2.90;;;;;;;23.58;80.53;101157.97;7357503;19;20043;-60
2023/09/08 02:24:28;;;;;;;5.28;2.90;;;;;;;23.56;80.54;101152.03;7359458;19;20018;-60
2023/09/08 02:26:55;;;;;;;4.45;3.35;;;;;;;23.56;80.30;101159.25;7357857;19;20018;-61
2023/09/08 02:29:22;;;;;;;5.47;3.17;;;;;;;23.55;80.28;101165.69;7357352;19;20467;-60
2023/09/08 02:31:50;;;;;;;6.80;2.85;;;;;;;23.53;81.03;101152.47;7357680;19;20026;-59
2023/09/08 02:34:17;;;;;;;10.43;3.08;;;;;;;23.51;81.06;101156.44;7359166;19;20021;-60
2023/09/08 02:36:47;;;;;;;4.18;2.50;;;;;;;23.51;80.70;101153.75;7356514;19;20394;-61
2023/09/08 02:39:15;;;;;;;5.30;3.08;;;;;;;23.50;80.61;101142.19;7357582;19;21180;-59
2023/09/08 02:41:42;;;;;;;6.35;2.88;;;;;;;23.51;79.95;101151.88;7353598;19;20037;-63
2023/09/08 02:44:09;;;;;;;5.20;2.92;;;;;;;23.49;80.13;101147.78;7356589;19;20025;-60
2023/09/08 02:46:36;;;;;;;5.50;2.78;;;;;;;23.47;80.72;101150.69;7349005;19;20018;-62
2023/09/08 02:49:04;;;;;;;5.38;3.28;;;;;;;23.44;81.07;101149.25;7355009;19;20024;-60
2023/09/08 02:51:31;;;;;;;6.53;3.50;;;;;;;23.43;80.74;101162.91;7355747;19;20736;-60
2023/09/08 02:53:58;;;;;;;5.88;3.15;;;;;;;23.38;81.08;101147.50;7359914;19;20021;-59
2023/09/08 02:56:26;;;;;;;5.35;3.13;;;;;;;23.37;81.83;101147.72;7357264;19;20116;-59
2023/09/08 02:58:53;;;;;;;8.68;3.72;;;;;;;23.34;81.22;101154.38;7360125;19;20471;-62
2023/09/08 03:01:20;;;;;;;5.93;3.40;;;;;;;23.32;81.22;101156.44;7354229;19;20022;-62
2023/09/08 03:03:48;;;;;;;6.65;3.08;;;;;;;23.31;81.33;101145.97;7359273;19;21071;-61
2023/09/08 03:06:21;;;;;;;4.72;3.38;;;;;;;23.29;80.81;101148.88;7353635;19;20018;-60
2023/09/08 03:08:48;;;;;;;4.18;3.20;;;;;;;23.27;81.38;101139.38;7357748;19;20367;-60
2023/09/08 03:11:15;;;;;;;5.13;3.10;;;;;;;23.26;80.84;101135.09;7355711;19;20011;-62
2023/09/08 03:13:42;;;;;;;5.55;2.85;;;;;;;23.23;81.07;101140.88;7359920;19;20010;-59
2023/09/08 03:16:10;;;;;;;5.35;2.80;;;;;;;23.19;81.38;101145.91;7355756;19;20049;-60
2023/09/08 03:18:38;;;;;;;4.40;3.25;;;;;;;23.18;81.27;101136.22;7359258;19;20022;-60
2023/09/08 03:21:09;;;;;;;3.97;2.75;;;;;;;23.16;81.52;101140.97;7355852;19;20013;-61
2023/09/08 03:23:38;;;;;;;5.43;3.60;;;;;;;23.17;81.50;101137.25;7357767;19;20049;-61
2023/09/08 03:26:05;;;;;;;7.45;3.53;;;;;;;23.17;81.19;101145.31;7354400;19;20566;-60
2023/09/08 03:28:34;;;;;;;5.82;3.17;;;;;;;23.18;80.85;101130.00;7357111;19;20033;-60
2023/09/08 03:31:03;;;;;;;5.72;3.08;;;;;;;23.16;81.15;101140.97;7353778;19;20490;-60
2023/09/08 03:33:30;;;;;;;6.00;2.70;;;;;;;23.17;81.68;101144.47;7354762;19;20031;-60
2023/09/08 03:35:58;;;;;;;4.90;2.97;;;;;;;23.14;81.00;101153.84;7350660;19;20056;-60
2023/09/08 03:38:25;;;;;;;5.13;3.28;;;;;;;23.14;81.30;101144.94;7356633;19;20006;-60
2023/09/08 03:40:52;;;;;;;5.10;2.92;;;;;;;23.13;80.77;101143.31;7356715;19;21013;-61
2023/09/08 03:43:20;;;;;;;4.00;3.20;;;;;;;23.10;80.81;101136.53;7355615;19;20046;-60
2023/09/08 03:45:47;;;;;;;5.82;2.55;;;;;;;23.11;81.38;101132.00;7357425;19;20052;-60
2023/09/08 03:48:14;;;;;;;4.47;2.70;;;;;;;23.08;81.26;101133.25;7356422;19;20014;-60
2023/09/08 03:50:45;;;;;;;5.82;2.85;;;;;;;23.07;81.39;101128.91;7352617;19;20018;-59
2023/09/08 03:53:12;;;;;;;5.47;2.70;;;;;;;23.08;81.91;101129.75;7358307;19;20026;-61
2023/09/08 03:55:40;;;;;;;4.28;2.85;;;;;;;23.06;81.66;101131.84;7361525;19;20089;-61
2023/09/08 03:58:07;;;;;;;5.40;2.75;;;;;;;23.06;81.97;101132.66;7365562;19;20529;-60
2023/09/08 04:00:35;;;;;;;4.63;2.92;;;;;;;23.06;81.70;101137.22;7360145;19;20752;-60
2023/09/08 04:03:03;;;;;;;5.90;2.90;;;;;;;23.06;81.47;101135.34;7357087;19;20037;-60
2023/09/08 04:05:30;;;;;;;5.38;2.65;;;;;;;23.06;81.18;101127.28;7360738;19;20047;-59
2023/09/08 04:07:57;;;;;;;6.32;2.80;;;;;;;23.06;81.70;101129.16;7363759;19;20665;-59
2023/09/08 04:10:25;;;;;;;5.22;3.05;;;;;;;23.03;81.27;101133.94;7362517;19;20006;-61
2023/09/08 04:12:52;;;;;;;5.32;3.20;;;;;;;23.00;81.63;101137.09;7362045;19;20161;-59
2023/09/08 04:15:20;;;;;;;7.05;3.33;;;;;;;22.98;81.27;101147.22;7362053;19;20018;-61
2023/09/08 04:17:47;;;;;;;4.00;2.75;;;;;;;22.97;81.99;101148.25;7361822;19;20061;-62
2023/09/08 04:20:15;;;;;;;5.05;2.85;;;;;;;22.98;81.81;101147.22;7360039;19;20023;-62
2023/09/08 04:22:42;;;;;;;4.78;3.10;;;;;;;22.96;82.09;101146.63;7361101;19;20019;-61
2023/09/08 04:25:11;;;;;;;5.68;2.85;;;;;;;22.94;81.87;101140.69;7361645;19;20368;-59
2023/09/08 04:27:38;;;;;;;5.68;3.20;;;;;;;22.95;82.14;101144.19;7361061;19;20329;-59
2023/09/08 04:30:06;;;;;;;7.97;3.25;;;;;;;22.95;81.72;101152.22;7362256;19;20018;-61
2023/09/08 04:32:33;;;;;;;4.97;3.10;;;;;;;22.93;81.63;101147.06;7362845;19;21035;-61
2023/09/08 04:35:01;;;;;;;5.57;3.15;;;;;;;22.93;82.10;101146.25;7360213;19;20581;-60
2023/09/08 04:37:30;;;;;;;4.93;3.03;;;;;;;22.93;81.52;101146.25;7361074;19;20021;-60
2023/09/08 04:39:57;;;;;;;3.17;2.28;;;;;;;22.92;81.64;101148.13;7361955;19;20011;-60
2023/09/08 04:42:25;;;;;;;5.53;2.60;;;;;;;22.89;81.69;101148.59;7360131;19;20019;-60
2023/09/08 04:44:53;;;;;;;5.50;3.17;;;;;;;22.89;81.89;101147.75;7362579;19;20784;-59
2023/09/08 04:47:20;;;;;;;7.30;4.10;;;;;;;22.89;81.96;101150.44;7359346;19;20014;-60
2023/09/08 04:49:47;;;;;;;6.30;3.53;;;;;;;22.89;82.25;101153.13;7361429;19;20502;-59
2023/09/08 04:52:15;;;;;;;5.72;3.03;;;;;;;22.89;82.32;101158.50;7363111;19;20029;-61
2023/09/08 04:54:42;;;;;;;5.85;3.10;;;;;;;22.90;81.78;101160.16;7361664;19;20018;-60
2023/09/08 04:57:09;;;;;;;6.72;2.95;;;;;;;22.90;81.42;101160.16;7361635;19;20010;-60
2023/09/08 04:59:49;;;;;;;6.25;2.85;;;;;;;22.87;81.11;101166.78;7362207;19;20367;-60
2023/09/08 05:02:18;;;;;;;5.50;3.08;;;;;;;22.86;81.16;101162.44;7355937;19;20063;-61
2023/09/08 05:04:45;;;;;;;6.20;3.22;;;;;;;22.82;81.29;101155.88;7359363;19;20026;-61
2023/09/08 05:07:13;;;;;;;5.93;3.08;;;;;;;22.80;81.93;101163.38;7361801;19;20870;-60
2023/09/08 05:09:41;;;;;;;4.28;2.65;;;;;;;22.78;81.86;101168.13;7360145;19;20011;-60
2023/09/08 05:12:08;;;;;;;5.05;2.90;;;;;;;22.77;81.37;101171.84;7359288;19;20606;-59
2023/09/08 05:14:35;;;;;;;4.20;3.03;;;;;;;22.78;81.54;101161.94;7362698;19;20029;-61
2023/09/08 05:17:03;;;;;;;6.68;3.10;;;;;;;22.75;80.95;101176.63;7358777;19;20022;-61
2023/09/08 05:19:30;;;;;;;15.52;4.07;;;;;;;22.75;80.46;101179.31;7354772;19;20018;-61
2023/09/08 05:21:57;;;;;;;4.35;2.80;;;;;;;22.75;81.08;101173.94;7357869;19;20031;-60
2023/09/08 05:24:26;;;;;;;5.82;2.88;;;;;;;22.77;80.40;101168.34;7359640;19;20905;-59
2023/09/08 05:26:54;;;;;;;6.22;2.72;;;;;;;22.75;80.06;101176.63;7357687;19;21118;-60
2023/09/08 05:29:21;;;;;;;8.07;3.08;;;;;;;22.74;80.84;101179.53;7357811;19;20010;-62
2023/09/08 05:31:48;;;;;;;6.72;2.47;;;;;;;22.74;80.75;101184.91;7358219;19;20018;-62
2023/09/08 05:34:16;;;;;;;7.80;3.33;;;;;;;22.72;80.49;101184.28;7356201;19;20147;-61
2023/09/08 05:36:43;;;;;;;4.70;2.88;;;;;;;22.70;80.99;101183.69;7358331;19;20026;-60
2023/09/08 05:39:11;;;;;;;4.25;3.13;;;;;;;22.69;80.07;101188.22;7359499;19;20025;-59
2023/09/08 05:41:38;;;;;;;4.45;2.80;;;;;;;22.70;80.35;101187.19;7357149;19;20048;-62
2023/09/08 05:44:05;;;;;;;6.75;3.85;;;;;;;22.69;80.50;101185.53;7359725;19;20599;-61
2023/09/08 05:46:32;;;;;;;5.13;3.00;;;;;;;22.67;80.42;101179.56;7359670;19;20018;-60
2023/09/08 05:49:00;;;;;;;7.65;3.00;;;;;;;22.68;81.22;101178.53;7357716;19;20059;-59
2023/09/08 05:51:27;;;;;;;6.38;2.63;;;;;;;22.67;81.12;101168.84;7360042;19;20442;-62
2023/09/08 05:53:54;;;;;;;7.35;3.72;;;;;;;22.67;81.38;101168.00;7355291;19;20014;-60
2023/09/08 05:56:26;;;;;;;5.60;3.30;;;;;;;22.64;81.37;101180.03;7354897;19;20018;-60
2023/09/08 05:58:53;;;;;;;5.70;3.15;;;;;;;22.64;81.27;101182.72;7358160;19;20123;-60
2023/09/08 06:01:20;;;;;;;5.68;3.40;;;;;;;22.64;81.43;101192.63;7359859;19;20018;-60
2023/09/08 06:03:48;;;;;;;5.72;3.33;;;;;;;22.64;81.82;101182.72;7356416;19;20047;-59
2023/09/08 06:06:16;;;;;;;4.93;3.25;;;;;;;22.64;81.44;101190.75;7355548;19;20116;-59
2023/09/08 06:08:43;;;;;;;5.82;2.90;;;;;;;22.66;81.79;101185.16;7359391;19;20019;-60
2023/09/08 06:11:12;;;;;;;8.35;3.47;;;;;;;22.70;81.16;101186.38;7354614;19;20835;-61
2023/09/08 06:13:39;;;;;;;6.95;3.55;;;;;;;22.73;80.95;101191.31;7360936;19;21019;-60
2023/09/08 06:16:07;;;;;;;9.02;3.25;;;;;;;22.75;80.69;101195.41;7357506;19;20022;-61
2023/09/08 06:18:39;;;;;;;6.57;3.47;;;;;;;22.77;80.75;101193.31;7357377;19;20010;-61
2023/09/08 06:21:07;;;;;;;5.30;2.95;;;;;;;22.79;80.23;101196.59;7353219;19;20058;-60
2023/09/08 06:23:35;;;;;;;5.85;3.28;;;;;;;22.81;80.92;101194.50;7356791;19;20090;-62
2023/09/08 06:26:04;;;;;;;6.88;3.60;;;;;;;22.81;80.74;101199.88;7355316;19;20226;-62
2023/09/08 06:28:31;;;;;;;6.25;3.63;;;;;;;22.84;80.70;101209.34;7357003;19;20315;-61
2023/09/08 06:30:59;;;;;;;5.85;3.60;;;;;;;22.83;81.04;101199.66;7353300;19;20074;-61
2023/09/08 06:33:26;;;;;;;5.78;3.50;;;;;;;22.84;81.56;101202.13;7356509;19;20086;-60
2023/09/08 06:35:55;;;;;;;4.70;3.03;;;;;;;22.85;81.72;101205.63;7356099;19;20533;-61
2023/09/08 06:38:25;;;;;;;6.45;3.55;;;;;;;22.85;81.37;101211.00;7358871;19;20022;-61
2023/09/08 06:40:54;;;;;;;5.90;3.85;;;;;;;22.85;81.62;101209.13;7355759;19;20101;-65
2023/09/08 06:43:22;;;;;;;9.07;3.90;;;;;;;22.86;81.59;101210.75;7356841;19;20538;-61
2023/09/08 06:45:50;;;;;;;6.72;3.25;;;;;;;22.86;81.66;101215.28;7358008;19;20558;-61
2023/09/08 06:48:17;;;;;;;9.15;4.05;;;;;;;22.88;82.06;101210.53;7356543;19;20014;-61
2023/09/08 06:50:44;;;;;;;6.03;3.70;;;;;;;22.89;81.74;101213.00;7356387;19;20018;-61
2023/09/08 06:53:12;;;;;;;5.07;3.28;;;;;;;22.90;82.42;101219.19;7358559;19;20086;-61
2023/09/08 06:55:39;;;;;;;7.22;4.10;;;;;;;22.91;82.16;101224.31;7358172;19;20018;-61
2023/09/08 06:58:11;;;;;;;7.22;4.05;;;;;;;22.93;82.42;101229.47;7358234;19;20018;-61
2023/09/08 07:00:39;;;;;;;9.40;3.92;;;;;;;22.94;82.10;101215.03;7359077;19;20029;-60
2023/09/08 07:03:07;;;;;;;7.35;4.32;;;;;;;22.95;81.81;101214.81;7356899;19;20015;-60
2023/09/08 07:05:35;;;;;;;7.53;4.15;;;;;;;22.96;81.63;101215.59;7352135;19;20041;-60
2023/09/08 07:08:03;;;;;;;12.30;5.13;;;;;;;23.00;81.67;101225.69;7355673;19;20085;-61
2023/09/08 07:10:30;;;;;;;10.02;5.28;;;;;;;23.00;81.17;101220.31;7355188;19;20015;-60
2023/09/08 07:12:58;;;;;;;9.05;5.35;;;;;;;23.03;81.04;101219.03;7356593;19;20010;-60
2023/09/08 07:15:25;;;;;;;8.80;4.82;;;;;;;23.04;81.20;101231.41;7359031;19;20018;-64
2023/09/08 07:17:52;;;;;;;6.65;4.50;;;;;;;23.06;81.02;101223.94;7358809;19;20022;-61
2023/09/08 07:20:20;;;;;;;7.28;5.22;;;;;;;23.11;81.90;101228.66;7357575;19;20353;-61
2023/09/08 07:22:47;;;;;;;8.85;5.40;;;;;;;23.14;81.24;101230.88;7354290;19;20011;-61
2023/09/08 07:25:15;;;;;;;12.73;5.68;;;;;;;23.17;81.21;101223.19;7357442;19;20011;-60
2023/09/08 07:27:42;;;;;;;8.52;5.38;;;;;;;23.18;80.83;101221.31;7356070;19;20459;-60
2023/09/08 07:30:10;;;;;;;8.68;5.05;;;;;;;23.19;80.87;101223.78;7356712;19;20034;-63
2023/09/08 07:32:37;;;;;;;8.25;5.43;;;;;;;23.23;81.21;101214.22;7356807;19;20875;-60
2023/09/08 07:35:13;;;;;;;10.70;5.00;;;;;;;23.29;80.78;101217.88;7356269;19;20022;-60
2023/09/08 07:37:41;;;;;;;7.38;5.40;;;;;;;23.34;80.74;101221.53;7352137;19;20029;-59
2023/09/08 07:40:10;;;;;;;11.88;5.47;;;;;;;23.39;81.83;101226.22;7358355;19;20048;-61
2023/09/08 07:42:39;;;;;;;12.07;6.78;;;;;;;23.47;81.90;101235.88;7345806;19;20022;-58
2023/09/08 07:45:14;;;;;;;11.30;6.30;;;;;;;23.51;81.46;101240.56;7351713;19;20057;-59
2023/09/08 07:47:43;;;;;;;15.23;5.47;;;;;;;23.55;80.93;101236.38;7356334;19;20819;-61
2023/09/08 07:50:21;;;;;;;8.82;5.20;;;;;;;23.57;81.35;101242.31;7349158;19;20019;-61
2023/09/08 07:52:49;;;;;;;8.77;5.15;;;;;;;23.59;81.20;101244.78;7353708;19;20110;-60
2023/09/08 07:55:17;;;;;;;12.90;6.10;;;;;;;23.60;80.92;101236.50;7357419;19;20122;-62
2023/09/08 07:57:46;;;;;;;10.57;5.45;;;;;;;23.62;81.13;101237.06;7353306;19;20029;-61
2023/09/08 08:00:14;;;;;;;9.48;5.57;;;;;;;23.64;81.09;101223.41;7353282;19;20022;-62
2023/09/08 08:02:48;;;;;;;10.93;5.72;;;;;;;23.63;81.38;101227.97;7352164;19;20007;-60
2023/09/08 08:05:16;;;;;;;14.90;6.40;;;;;;;23.63;81.64;101238.72;7350959;19;20021;-59
2023/09/08 08:07:44;;;;;;;9.95;5.97;;;;;;;23.64;81.03;101245.75;7351152;19;20109;-61
2023/09/08 08:10:13;;;;;;;13.65;6.07;;;;;;;23.68;82.92;101248.78;7350060;19;20010;-60
2023/09/08 08:12:41;;;;;;;11.88;5.95;;;;;;;23.69;82.87;101245.88;7351181;19;20044;-63
2023/09/08 08:15:10;;;;;;;12.77;6.55;;;;;;;23.73;83.34;101246.22;7357498;19;20015;-63
2023/09/08 08:17:39;;;;;;;11.13;5.88;;;;;;;23.76;82.71;101245.78;7353354;19;20015;-60
2023/09/08 08:20:09;;;;;;;10.20;5.78;;;;;;;23.80;82.18;101241.59;7352493;19;20036;-60
2023/09/08 08:22:37;;;;;;;9.80;5.85;;;;;;;23.82;80.88;101244.88;7353953;19;20027;-60
2023/09/08 08:25:05;;;;;;;10.40;5.68;;;;;;;23.84;81.09;101242.75;7353813;19;20014;-59
2023/09/08 08:27:32;;;;;;;10.70;5.13;;;;;;;23.84;80.99;101245.44;7356556;19;20054;-62
2023/09/08 08:30:00;;;;;;;8.50;4.93;;;;;;;23.91;82.64;101242.66;7355474;19;20014;-61
2023/09/08 08:32:28;;;;;;;9.75;5.60;;;;;;;23.94;81.44;101243.00;7352797;19;20018;-60
2023/09/08 08:34:56;;;;;;;12.40;5.47;;;;;;;23.99;81.54;101251.22;7350619;19;20034;-61
2023/09/08 08:37:24;;;;;;;12.02;6.00;;;;;;;24.01;80.28;101243.75;7350481;19;20022;-60
2023/09/08 08:39:52;;;;;;;10.10;5.63;;;;;;;24.06;79.78;101253.81;7362979;19;20110;-65
2023/09/08 08:42:22;;;;;;;11.00;6.00;;;;;;;24.10;79.86;101246.91;7361599;19;20514;-60
2023/09/08 08:44:50;;;;;;;13.23;5.53;;;;;;;24.12;79.47;101245.63;7363003;19;20590;-60
2023/09/08 08:47:19;;;;;;;13.65;5.70;;;;;;;24.16;79.67;101241.44;7363303;19;20019;-59
2023/09/08 08:49:49;;;;;;;10.30;5.28;;;;;;;24.25;80.35;101242.75;7362427;19;20026;-65
2023/09/08 08:52:17;;;;;;;11.88;5.43;;;;;;;24.30;79.20;101244.75;7361163;19;20022;-59
2023/09/08 08:54:46;;;;;;;10.50;4.95;;;;;;;24.34;78.66;101237.84;7365372;19;20029;-59
2023/09/08 08:57:14;;;;;;;9.75;5.63;;;;;;;24.38;79.07;101243.59;7358431;19;20102;-60
2023/09/08 08:59:43;;;;;;;10.63;5.60;;;;;;;24.42;78.35;101250.97;7364404;19;20035;-61
2023/09/08 09:02:11;;;;;;;9.52;5.32;;;;;;;24.46;78.08;101249.44;7359175;19;20034;-60
2023/09/08 09:04:40;;;;;;;15.80;5.60;;;;;;;24.50;78.65;101244.41;7360496;19;20022;-61
2023/09/08 09:07:07;;;;;;;11.15;5.47;;;;;;;24.54;78.11;101245.56;7358417;19;20038;-60
2023/09/08 09:09:35;;;;;;;11.85;6.13;;;;;;;24.58;77.91;101246.75;7359759;19;20037;-61
2023/09/08 09:12:03;;;;;;;10.52;5.90;;;;;;;24.62;77.53;101246.03;7359729;19;20810;-61
2023/09/08 09:14:35;;;;;;;10.90;4.97;;;;;;;24.70;77.65;101248.38;7363207;19;20019;-61
2023/09/08 09:17:04;;;;;;;13.20;6.03;;;;;;;24.76;77.86;101256.56;7360628;19;20017;-60
2023/09/08 09:19:31;;;;;;;11.30;5.25;;;;;;;24.80;76.57;101255.03;7359520;19;21988;-60
2023/09/08 09:21:59;;;;;;;11.80;5.82;;;;;;;24.83;76.54;101257.25;7362225;19;20018;-60
2023/09/08 09:24:43;;;;;;;10.75;5.38;;;;;;;24.87;76.76;101253.88;7360808;19;20022;-61
2023/09/08 09:27:12;;;;;;;11.95;5.60;;;;;;;24.91;77.13;101256.91;7363981;19;20701;-60
2023/09/08 09:29:50;;;;;;;8.43;4.95;;;;;;;24.95;77.36;101255.38;7358535;19;20025;-60
2023/09/08 09:32:24;;;;;;;16.13;6.07;;;;;;;24.99;76.82;101262.75;7354942;19;20025;-60
2023/09/08 09:34:54;;;;;;;13.10;5.25;;;;;;;25.01;76.87;101255.25;7354487;19;21006;-63
2023/09/08 09:37:22;;;;;;;9.85;5.68;;;;;;;25.02;76.44;101246.13;7356721;19;20033;-61
2023/09/08 09:39:50;;;;;;;13.70;6.10;;;;;;;25.06;77.05;101254.53;7358028;19;20019;-60
2023/09/08 09:42:18;;;;;;;11.45;6.45;;;;;;;25.07;76.46;101246.22;7357362;19;20018;-60
2023/09/08 09:44:48;;;;;;;14.77;6.10;;;;;;;25.08;76.49;101247.88;7358258;19;20099;-60
2023/09/08 09:47:16;;;;;;;9.98;6.22;;;;;;;25.11;76.76;101254.66;7341994;19;20022;-60
2023/09/08 09:49:46;;;;;;;9.30;5.70;;;;;;;25.13;77.11;101256.06;7353505;19;20335;-61
2023/09/08 09:52:23;;;;;;;12.88;6.15;;;;;;;25.16;77.48;101256.63;7355320;19;20025;-58
2023/09/08 09:54:54;;;;;;;13.57;6.30;;;;;;;25.19;77.57;101256.16;7358298;19;20014;-59
2023/09/08 09:57:23;;;;;;;8.88;5.82;;;;;;;25.22;76.93;101256.50;7360348;19;20059;-63
2023/09/08 09:59:53;;;;;;;12.38;6.30;;;;;;;25.25;76.66;101250.63;7363009;19;20034;-61
2023/09/08 10:02:21;;;;;;;9.00;5.60;;;;;;;25.30;76.97;101256.09;7356465;19;20035;-61
2023/09/08 10:04:50;;;;;;;11.80;5.57;;;;;;;25.34;75.89;101264.56;7356399;19;20015;-63
2023/09/08 10:07:18;;;;;;;16.77;6.63;;;;;;;25.38;75.73;101263.84;7352957;19;20025;-60
2023/09/08 10:09:47;;;;;;;12.10;6.03;;;;;;;25.44;76.71;101262.88;7356029;19;20218;-62
2023/09/08 10:12:15;;;;;;;13.80;5.57;;;;;;;25.49;76.56;101260.28;7357028;19;20018;-59
2023/09/08 10:14:44;;;;;;;10.90;5.35;;;;;;;25.57;75.63;101266.34;7358962;19;20041;-61
2023/09/08 10:17:20;;;;;;;13.40;5.35;;;;;;;25.63;75.23;101268.09;7358146;19;20094;-60
2023/09/08 10:19:51;;;;;;;9.38;5.80;;;;;;;25.71;74.94;101265.00;7359807;19;20017;-60
2023/09/08 10:22:24;;;;;;;13.52;6.95;;;;;;;25.76;74.44;101257.81;7358962;19;20006;-60
2023/09/08 10:24:55;;;;;;;14.10;6.10;;;;;;;25.81;75.20;101270.56;7355948;19;20098;-60
2023/09/08 10:27:23;;;;;;;12.73;5.78;;;;;;;25.85;74.72;101263.66;7352743;19;20017;-60
2023/09/08 10:29:52;;;;;;;12.82;5.38;;;;;;;25.90;73.88;101266.44;7357643;19;20014;-61
2023/09/08 10:32:23;;;;;;;8.73;5.00;;;;;;;25.96;74.80;101268.97;7357715;19;20038;-60
2023/09/08 10:34:53;;;;;;;13.70;5.55;;;;;;;26.05;73.93;101268.59;7357363;19;20007;-59
2023/09/08 10:37:31;;;;;;;12.20;5.78;;;;;;;26.12;73.61;101261.13;7355745;19;20613;-61
2023/09/08 10:40:18;;;;;;;11.32;5.78;;;;;;;26.21;73.64;101260.47;7362383;19;20018;-59
2023/09/08 10:42:48;;;;;;;8.73;5.28;;;;;;;26.29;73.00;101262.81;7355137;19;21330;-61
2023/09/08 10:45:20;;;;;;;10.25;4.97;;;;;;;26.37;72.54;101259.69;7358503;19;20022;-61
2023/09/08 10:47:48;;;;;;;8.75;5.30;;;;;;;26.43;72.93;101262.47;7355086;19;20006;-59
2023/09/08 10:50:18;;;;;;;14.80;5.57;;;;;;;26.50;72.19;101263.94;7351707;19;20056;-60
2023/09/08 10:53:04;;;;;;;8.70;4.55;;;;;;;26.58;71.71;101255.41;7357626;19;20010;-61
2023/09/08 10:55:37;;;;;;;11.00;5.25;;;;;;;26.64;71.41;101261.69;7355823;19;20016;-60
2023/09/08 10:58:05;;;;;;;;;;;;;;;26.70;71.45;101266.94;7360199;19;20022;-59
2023/09/08 11:00:43;;;;;;;7.85;4.57;;;;;;;26.74;71.31;101254.56;7355675;19;19984;-60
2023/09/08 11:03:11;;;;;;;12.02;4.80;;;;;;;26.85;70.41;101260.94;7354879;19;21920;-60
2023/09/08 11:05:39;;;;;;;8.65;4.63;;;;;;;26.94;70.41;101264.84;7355446;19;20028;-59
2023/09/08 11:08:07;;;;;;;18.40;8.13;;;;;;;27.00;70.68;101271.97;7357859;19;21342;-63
2023/09/08 11:10:34;;;;;;;12.98;5.65;;;;;;;27.03;70.30;101268.75;7354728;19;20007;-66
2023/09/08 11:13:03;;;;;;;13.85;4.72;;;;;;;27.09;70.18;101266.94;7357506;19;20053;-60
2023/09/08 11:15:30;;;;;;;15.10;4.40;;;;;;;27.13;70.05;101260.78;7359065;19;20527;-60
2023/09/08 11:18:05;;;;;;;11.52;4.25;;;;;;;27.20;69.51;101256.00;7355969;19;20034;-60
2023/09/08 11:20:33;;;;;;;9.88;4.63;;;;;;;27.28;69.45;101257.44;7354540;19;20030;-61
2023/09/08 11:23:01;;;;;;;8.60;3.75;;;;;;;27.36;68.87;101258.88;7359257;19;20089;-59
2023/09/08 11:25:29;;;;;;;7.57;3.97;;;;;;;27.45;68.28;101266.28;7358703;19;20947;-61
2023/09/08 11:27:57;;;;;;;11.23;3.85;;;;;;;27.56;68.47;101265.34;7356390;19;20022;-60